<?xml version="1.0" encoding="UTF-8" standalone="no" ?><gpx xmlns="http://www.topografix.com/GPX/1/1" xmlns:gpxx="http://www.garmin.com/xmlschemas/GpxExtensions/v3" xmlns:wptx1="http://www.garmin.com/xmlschemas/WaypointExtension/v1" xmlns:gpxtpx="http://www.garmin.com/xmlschemas/TrackPointExtension/v1" creator="GuideVTT.com" version="1.1" xmlns:xsi="http://www.w3.org/2001/XMLSchema-instance" xsi:schemaLocation="http://www.topografix.com/GPX/1/1 http://www.topografix.com/GPX/1/1/gpx.xsd http://www.garmin.com/xmlschemas/GpxExtensions/v3 http://www8.garmin.com/xmlschemas/GpxExtensionsv3.xsd http://www.garmin.com/xmlschemas/WaypointExtension/v1 http://www8.garmin.com/xmlschemas/WaypointExtensionv1.xsd http://www.garmin.com/xmlschemas/TrackPointExtension/v1 http://www.garmin.com/xmlschemas/TrackPointExtensionv1.xsd">
<metadata><link href="http://www.garmin.com"><text>Garmin International</text></link><time>2013-06-22T15:13:50Z</time></metadata>
<trk><name>rp_sortie4.gpx</name><extensions><gpxx:TrackExtension><gpxx:DisplayColor>Cyan</gpxx:DisplayColor></gpxx:TrackExtension></extensions><trkseg>
<trkpt lat="47.41465330" lon="7.07515240"><ele>394.758545</ele><time>2006-05-03T16:12:00Z</time></trkpt>
<trkpt lat="47.41465330" lon="7.07519531"><ele>412.062256</ele><time>2006-05-03T16:12:10Z</time></trkpt>
<trkpt lat="47.41443872" lon="7.07472324"><ele>433.211304</ele><time>2006-05-03T16:12:21Z</time></trkpt>
<trkpt lat="47.41428852" lon="7.07448721"><ele>435.614502</ele><time>2006-05-03T16:12:36Z</time></trkpt>
<trkpt lat="47.41413832" lon="7.07410097"><ele>438.498535</ele><time>2006-05-03T16:12:42Z</time></trkpt>
<trkpt lat="47.41392374" lon="7.07392931"><ele>438.979126</ele><time>2006-05-03T16:12:47Z</time></trkpt>
<trkpt lat="47.41334438" lon="7.07405806"><ele>444.74707</ele><time>2006-05-03T16:13:03Z</time></trkpt>
<trkpt lat="47.41276503" lon="7.07412243"><ele>452.918213</ele><time>2006-05-03T16:13:19Z</time></trkpt>
<trkpt lat="47.41233587" lon="7.07405806"><ele>452.918213</ele><time>2006-05-03T16:13:31Z</time></trkpt>
<trkpt lat="47.41066217" lon="7.07334995"><ele>453.879639</ele><time>2006-05-03T16:14:16Z</time></trkpt>
<trkpt lat="47.41044760" lon="7.07302809"><ele>454.360229</ele><time>2006-05-03T16:14:27Z</time></trkpt>
<trkpt lat="47.41023302" lon="7.07264185"><ele>455.802246</ele><time>2006-05-03T16:14:41Z</time></trkpt>
<trkpt lat="47.40999699" lon="7.07204103"><ele>458.686157</ele><time>2006-05-03T16:14:55Z</time></trkpt>
<trkpt lat="47.40961075" lon="7.07161188"><ele>460.608765</ele><time>2006-05-03T16:15:11Z</time></trkpt>
<trkpt lat="47.40928888" lon="7.07133293"><ele>462.050781</ele><time>2006-05-03T16:15:24Z</time></trkpt>
<trkpt lat="47.40900993" lon="7.07090378"><ele>463.492798</ele><time>2006-05-03T16:15:36Z</time></trkpt>
<trkpt lat="47.40877390" lon="7.07071066"><ele>464.454102</ele><time>2006-05-03T16:15:46Z</time></trkpt>
<trkpt lat="47.40843058" lon="7.07030296"><ele>465.896118</ele><time>2006-05-03T16:16:02Z</time></trkpt>
<trkpt lat="47.40757227" lon="7.06940174"><ele>464.454102</ele><time>2006-05-03T16:16:34Z</time></trkpt>
<trkpt lat="47.40626335" lon="7.06768513"><ele>469.260742</ele><time>2006-05-03T16:17:38Z</time></trkpt>
<trkpt lat="47.40589857" lon="7.06751347"><ele>469.741333</ele><time>2006-05-03T16:17:51Z</time></trkpt>
<trkpt lat="47.40544796" lon="7.06738472"><ele>477.431885</ele><time>2006-05-03T16:18:04Z</time></trkpt>
<trkpt lat="47.40465403" lon="7.06738472"><ele>478.873901</ele><time>2006-05-03T16:18:20Z</time></trkpt>
<trkpt lat="47.40283012" lon="7.06680536"><ele>481.277222</ele><time>2006-05-03T16:18:50Z</time></trkpt>
<trkpt lat="47.40244389" lon="7.06646204"><ele>483.199829</ele><time>2006-05-03T16:18:59Z</time></trkpt>
<trkpt lat="47.40205765" lon="7.06644058"><ele>484.641846</ele><time>2006-05-03T16:19:08Z</time></trkpt>
<trkpt lat="47.40173578" lon="7.06596851"><ele>485.603027</ele><time>2006-05-03T16:19:19Z</time></trkpt>
<trkpt lat="47.40128517" lon="7.06541061"><ele>486.564453</ele><time>2006-05-03T16:19:35Z</time></trkpt>
<trkpt lat="47.40081310" lon="7.06489563"><ele>487.525635</ele><time>2006-05-03T16:19:50Z</time></trkpt>
<trkpt lat="47.40016937" lon="7.06442356"><ele>490.40979</ele><time>2006-05-03T16:20:07Z</time></trkpt>
<trkpt lat="47.39948273" lon="7.06382275"><ele>490.890381</ele><time>2006-05-03T16:20:23Z</time></trkpt>
<trkpt lat="47.39920378" lon="7.06393003"><ele>489.448364</ele><time>2006-05-03T16:20:29Z</time></trkpt>
<trkpt lat="47.39916086" lon="7.06403732"><ele>489.929077</ele><time>2006-05-03T16:20:31Z</time></trkpt>
<trkpt lat="47.39911795" lon="7.06440210"><ele>489.929077</ele><time>2006-05-03T16:20:36Z</time></trkpt>
<trkpt lat="47.39909649" lon="7.06541061"><ele>490.890381</ele><time>2006-05-03T16:20:49Z</time></trkpt>
<trkpt lat="47.39911795" lon="7.06564665"><ele>491.370972</ele><time>2006-05-03T16:20:52Z</time></trkpt>
<trkpt lat="47.39894629" lon="7.06586123"><ele>489.929077</ele><time>2006-05-03T16:20:57Z</time></trkpt>
<trkpt lat="47.39802361" lon="7.06594706"><ele>488.00647</ele><time>2006-05-03T16:21:11Z</time></trkpt>
<trkpt lat="47.39783049" lon="7.06581831"><ele>488.487183</ele><time>2006-05-03T16:21:15Z</time></trkpt>
<trkpt lat="47.39776611" lon="7.06571102"><ele>488.487183</ele><time>2006-05-03T16:21:17Z</time></trkpt>
<trkpt lat="47.39692926" lon="7.06532478"><ele>489.929077</ele><time>2006-05-03T16:21:38Z</time></trkpt>
<trkpt lat="47.39615679" lon="7.06485271"><ele>491.370972</ele><time>2006-05-03T16:21:57Z</time></trkpt>
<trkpt lat="47.39542723" lon="7.06382275"><ele>494.255005</ele><time>2006-05-03T16:22:25Z</time></trkpt>
<trkpt lat="47.39444017" lon="7.06292152"><ele>499.061523</ele><time>2006-05-03T16:23:09Z</time></trkpt>
<trkpt lat="47.39403248" lon="7.06270695"><ele>502.426147</ele><time>2006-05-03T16:23:26Z</time></trkpt>
<trkpt lat="47.39360332" lon="7.06264257"><ele>503.868164</ele><time>2006-05-03T16:23:50Z</time></trkpt>
<trkpt lat="47.39345312" lon="7.06358671"><ele>503.387451</ele><time>2006-05-03T16:24:39Z</time></trkpt>
<trkpt lat="47.39351749" lon="7.06339359"><ele>503.387451</ele><time>2006-05-03T16:24:45Z</time></trkpt>
<trkpt lat="47.39347458" lon="7.06309319"><ele>503.868164</ele><time>2006-05-03T16:24:51Z</time></trkpt>
<trkpt lat="47.39319563" lon="7.06279278"><ele>500.984131</ele><time>2006-05-03T16:25:04Z</time></trkpt>
<trkpt lat="47.39308834" lon="7.06259966"><ele>501.464844</ele><time>2006-05-03T16:25:10Z</time></trkpt>
<trkpt lat="47.39304543" lon="7.06262112"><ele>500.984131</ele><time>2006-05-03T16:25:13Z</time></trkpt>
<trkpt lat="47.39377499" lon="7.06290007"><ele>502.906738</ele><time>2006-05-03T16:25:38Z</time></trkpt>
<trkpt lat="47.39437580" lon="7.06302881"><ele>504.348877</ele><time>2006-05-03T16:25:51Z</time></trkpt>
<trkpt lat="47.39519119" lon="7.06347942"><ele>503.868164</ele><time>2006-05-03T16:26:09Z</time></trkpt>
<trkpt lat="47.39562035" lon="7.06380129"><ele>501.464844</ele><time>2006-05-03T16:26:16Z</time></trkpt>
<trkpt lat="47.39600658" lon="7.06448793"><ele>499.542236</ele><time>2006-05-03T16:26:25Z</time></trkpt>
<trkpt lat="47.39650011" lon="7.06521749"><ele>498.100342</ele><time>2006-05-03T16:26:37Z</time></trkpt>
<trkpt lat="47.39673615" lon="7.06545353"><ele>495.696899</ele><time>2006-05-03T16:26:42Z</time></trkpt>
<trkpt lat="47.39761591" lon="7.06579685"><ele>491.370972</ele><time>2006-05-03T16:26:56Z</time></trkpt>
<trkpt lat="47.39778757" lon="7.06603289"><ele>489.929077</ele><time>2006-05-03T16:27:01Z</time></trkpt>
<trkpt lat="47.39834547" lon="7.06684828"><ele>488.967773</ele><time>2006-05-03T16:27:15Z</time></trkpt>
<trkpt lat="47.39845276" lon="7.06719160"><ele>487.045044</ele><time>2006-05-03T16:27:19Z</time></trkpt>
<trkpt lat="47.39909649" lon="7.07060337"><ele>473.58667</ele><time>2006-05-03T16:27:51Z</time></trkpt>
<trkpt lat="47.39920378" lon="7.07088232"><ele>471.66394</ele><time>2006-05-03T16:27:54Z</time></trkpt>
<trkpt lat="47.39911795" lon="7.07109690"><ele>471.66394</ele><time>2006-05-03T16:27:58Z</time></trkpt>
<trkpt lat="47.39684343" lon="7.07105398"><ele>486.08374</ele><time>2006-05-03T16:29:03Z</time></trkpt>
<trkpt lat="47.39632845" lon="7.07101107"><ele>487.525635</ele><time>2006-05-03T16:29:19Z</time></trkpt>
<trkpt lat="47.39579201" lon="7.07083941"><ele>488.487183</ele><time>2006-05-03T16:29:37Z</time></trkpt>
<trkpt lat="47.39577055" lon="7.07077503"><ele>485.603027</ele><time>2006-05-03T16:30:38Z</time></trkpt>
<trkpt lat="47.39564180" lon="7.07079649"><ele>486.08374</ele><time>2006-05-03T16:30:44Z</time></trkpt>
<trkpt lat="47.39392519" lon="7.07038879"><ele>487.045044</ele><time>2006-05-03T16:31:39Z</time></trkpt>
<trkpt lat="47.39349604" lon="7.07023859"><ele>483.68042</ele><time>2006-05-03T16:31:48Z</time></trkpt>
<trkpt lat="47.39345312" lon="7.07058191"><ele>482.719238</ele><time>2006-05-03T16:31:52Z</time></trkpt>
<trkpt lat="47.39328146" lon="7.07079649"><ele>481.277222</ele><time>2006-05-03T16:31:58Z</time></trkpt>
<trkpt lat="47.39304543" lon="7.07060337"><ele>483.199829</ele><time>2006-05-03T16:32:04Z</time></trkpt>
<trkpt lat="47.39188671" lon="7.07000256"><ele>488.487183</ele><time>2006-05-03T16:32:34Z</time></trkpt>
<trkpt lat="47.39167213" lon="7.06980944"><ele>489.448364</ele><time>2006-05-03T16:33:05Z</time></trkpt>
<trkpt lat="47.39139318" lon="7.06938028"><ele>491.851685</ele><time>2006-05-03T16:33:18Z</time></trkpt>
<trkpt lat="47.39066362" lon="7.06787825"><ele>499.542236</ele><time>2006-05-03T16:33:48Z</time></trkpt>
<trkpt lat="47.39047050" lon="7.06693411"><ele>500.984131</ele><time>2006-05-03T16:34:03Z</time></trkpt>
<trkpt lat="47.39034176" lon="7.06605434"><ele>503.868164</ele><time>2006-05-03T16:34:17Z</time></trkpt>
<trkpt lat="47.38993406" lon="7.06504583"><ele>507.232788</ele><time>2006-05-03T16:34:36Z</time></trkpt>
<trkpt lat="47.38969803" lon="7.06459522"><ele>509.636108</ele><time>2006-05-03T16:34:48Z</time></trkpt>
<trkpt lat="47.38898993" lon="7.06339359"><ele>517.32666</ele><time>2006-05-03T16:35:29Z</time></trkpt>
<trkpt lat="47.38862514" lon="7.06285715"><ele>520.691284</ele><time>2006-05-03T16:35:49Z</time></trkpt>
<trkpt lat="47.38836765" lon="7.06240654"><ele>523.575195</ele><time>2006-05-03T16:36:03Z</time></trkpt>
<trkpt lat="47.38712311" lon="7.06045389"><ele>535.110962</ele><time>2006-05-03T16:37:17Z</time></trkpt>
<trkpt lat="47.38675833" lon="7.05981016"><ele>536.072388</ele><time>2006-05-03T16:37:45Z</time></trkpt>
<trkpt lat="47.38643646" lon="7.05931664"><ele>539.917603</ele><time>2006-05-03T16:38:05Z</time></trkpt>
<trkpt lat="47.38572836" lon="7.05901623"><ele>547.127441</ele><time>2006-05-03T16:38:43Z</time></trkpt>
<trkpt lat="47.38544941" lon="7.05899477"><ele>549.050049</ele><time>2006-05-03T16:38:57Z</time></trkpt>
<trkpt lat="47.38480568" lon="7.05933809"><ele>552.895264</ele><time>2006-05-03T16:39:40Z</time></trkpt>
<trkpt lat="47.38454819" lon="7.05955267"><ele>556.740723</ele><time>2006-05-03T16:40:00Z</time></trkpt>
<trkpt lat="47.38441944" lon="7.05946684"><ele>560.585938</ele><time>2006-05-03T16:40:11Z</time></trkpt>
<trkpt lat="47.38426924" lon="7.05916643"><ele>564.431152</ele><time>2006-05-03T16:40:29Z</time></trkpt>
<trkpt lat="47.38420486" lon="7.05873728"><ele>567.795654</ele><time>2006-05-03T16:40:49Z</time></trkpt>
<trkpt lat="47.38431215" lon="7.05792189"><ele>569.718506</ele><time>2006-05-03T16:41:19Z</time></trkpt>
<trkpt lat="47.38448381" lon="7.05734253"><ele>575.486328</ele><time>2006-05-03T16:41:38Z</time></trkpt>
<trkpt lat="47.38439798" lon="7.05689192"><ele>582.215576</ele><time>2006-05-03T16:41:58Z</time></trkpt>
<trkpt lat="47.38420486" lon="7.05680609"><ele>584.138184</ele><time>2006-05-03T16:42:15Z</time></trkpt>
<trkpt lat="47.38373280" lon="7.05704212"><ele>584.618896</ele><time>2006-05-03T16:42:55Z</time></trkpt>
<trkpt lat="47.38336802" lon="7.05712795"><ele>591.348145</ele><time>2006-05-03T16:43:15Z</time></trkpt>
<trkpt lat="47.38326073" lon="7.05687046"><ele>592.790283</ele><time>2006-05-03T16:43:32Z</time></trkpt>
<trkpt lat="47.38341093" lon="7.05639839"><ele>602.403076</ele><time>2006-05-03T16:43:52Z</time></trkpt>
<trkpt lat="47.38341093" lon="7.05594778"><ele>606.729248</ele><time>2006-05-03T16:44:10Z</time></trkpt>
<trkpt lat="47.38321781" lon="7.05562592"><ele>613.938965</ele><time>2006-05-03T16:44:28Z</time></trkpt>
<trkpt lat="47.38289595" lon="7.05566883"><ele>621.629639</ele><time>2006-05-03T16:44:47Z</time></trkpt>
<trkpt lat="47.38233805" lon="7.05622673"><ele>630.762207</ele><time>2006-05-03T16:45:21Z</time></trkpt>
<trkpt lat="47.38205910" lon="7.05639839"><ele>634.126709</ele><time>2006-05-03T16:45:37Z</time></trkpt>
<trkpt lat="47.38145828" lon="7.05646276"><ele>639.414063</ele><time>2006-05-03T16:46:16Z</time></trkpt>
<trkpt lat="47.38117933" lon="7.05644131"><ele>644.220703</ele><time>2006-05-03T16:46:39Z</time></trkpt>
<trkpt lat="47.38096476" lon="7.05633402"><ele>647.104492</ele><time>2006-05-03T16:46:58Z</time></trkpt>
<trkpt lat="47.38083601" lon="7.05620527"><ele>653.353271</ele><time>2006-05-03T16:47:12Z</time></trkpt>
<trkpt lat="47.38021374" lon="7.05618382"><ele>654.314697</ele><time>2006-05-03T16:47:50Z</time></trkpt>
<trkpt lat="47.37967730" lon="7.05573320"><ele>655.756592</ele><time>2006-05-03T16:48:09Z</time></trkpt>
<trkpt lat="47.37918377" lon="7.05511093"><ele>655.275879</ele><time>2006-05-03T16:48:26Z</time></trkpt>
<trkpt lat="47.37802505" lon="7.05547571"><ele>654.314697</ele><time>2006-05-03T16:48:44Z</time></trkpt>
<trkpt lat="47.37774611" lon="7.05599070"><ele>654.314697</ele><time>2006-05-03T16:48:51Z</time></trkpt>
<trkpt lat="47.37768173" lon="7.05616236"><ele>654.314697</ele><time>2006-05-03T16:48:53Z</time></trkpt>
<trkpt lat="47.37757444" lon="7.05766439"><ele>652.391846</ele><time>2006-05-03T16:49:19Z</time></trkpt>
<trkpt lat="47.37755299" lon="7.05824375"><ele>649.0271</ele><time>2006-05-03T16:49:39Z</time></trkpt>
<trkpt lat="47.37757444" lon="7.05886602"><ele>650.949707</ele><time>2006-05-03T16:50:01Z</time></trkpt>
<trkpt lat="47.37763882" lon="7.05942392"><ele>654.795166</ele><time>2006-05-03T16:50:19Z</time></trkpt>
<trkpt lat="47.37766027" lon="7.06034660"><ele>664.408203</ele><time>2006-05-03T16:51:01Z</time></trkpt>
<trkpt lat="47.37751007" lon="7.06240654"><ele>680.750732</ele><time>2006-05-03T16:52:22Z</time></trkpt>
<trkpt lat="47.37742424" lon="7.06315756"><ele>683.153809</ele><time>2006-05-03T16:52:53Z</time></trkpt>
<trkpt lat="47.37766027" lon="7.06446648"><ele>688.441406</ele><time>2006-05-03T16:53:47Z</time></trkpt>
<trkpt lat="47.37755299" lon="7.06468105"><ele>693.728516</ele><time>2006-05-03T16:54:00Z</time></trkpt>
<trkpt lat="47.37727404" lon="7.06465960"><ele>696.131836</ele><time>2006-05-03T16:54:14Z</time></trkpt>
<trkpt lat="47.37665176" lon="7.06435919"><ele>703.82251</ele><time>2006-05-03T16:54:51Z</time></trkpt>
<trkpt lat="47.37607241" lon="7.06420898"><ele>711.993652</ele><time>2006-05-03T16:55:32Z</time></trkpt>
<trkpt lat="47.37575054" lon="7.06386566"><ele>717.281006</ele><time>2006-05-03T16:55:59Z</time></trkpt>
<trkpt lat="47.37557888" lon="7.06345797"><ele>719.203613</ele><time>2006-05-03T16:56:19Z</time></trkpt>
<trkpt lat="47.37545013" lon="7.06199884"><ele>727.374756</ele><time>2006-05-03T16:57:23Z</time></trkpt>
<trkpt lat="47.37532139" lon="7.06150532"><ele>731.219971</ele><time>2006-05-03T16:57:48Z</time></trkpt>
<trkpt lat="47.37523556" lon="7.06103325"><ele>735.545898</ele><time>2006-05-03T16:58:10Z</time></trkpt>
<trkpt lat="47.37457037" lon="7.06008911"><ele>737.468506</ele><time>2006-05-03T16:59:21Z</time></trkpt>
<trkpt lat="47.37448454" lon="7.05955267"><ele>740.833008</ele><time>2006-05-03T16:59:51Z</time></trkpt>
<trkpt lat="47.37442017" lon="7.05850124"><ele>745.158936</ele><time>2006-05-03T17:00:42Z</time></trkpt>
<trkpt lat="47.37388372" lon="7.05680609"><ele>757.65625</ele><time>2006-05-03T17:02:10Z</time></trkpt>
<trkpt lat="47.37366915" lon="7.05549717"><ele>774.479248</ele><time>2006-05-03T17:03:11Z</time></trkpt>
<trkpt lat="47.37334728" lon="7.05474615"><ele>779.766357</ele><time>2006-05-03T17:03:51Z</time></trkpt>
<trkpt lat="47.37326145" lon="7.05444574"><ele>781.689209</ele><time>2006-05-03T17:04:06Z</time></trkpt>
<trkpt lat="47.37323999" lon="7.05412388"><ele>790.341064</ele><time>2006-05-03T17:04:22Z</time></trkpt>
<trkpt lat="47.37315416" lon="7.05360889"><ele>799.473633</ele><time>2006-05-03T17:04:46Z</time></trkpt>
<trkpt lat="47.37334728" lon="7.05335140"><ele>800.915527</ele><time>2006-05-03T17:05:01Z</time></trkpt>
<trkpt lat="47.37354040" lon="7.05332994"><ele>801.39624</ele><time>2006-05-03T17:05:09Z</time></trkpt>
<trkpt lat="47.37360477" lon="7.05307245"><ele>801.39624</ele><time>2006-05-03T17:05:18Z</time></trkpt>
<trkpt lat="47.37375498" lon="7.05277205"><ele>801.39624</ele><time>2006-05-03T17:05:30Z</time></trkpt>
<trkpt lat="47.37396955" lon="7.05202103"><ele>802.838135</ele><time>2006-05-03T17:05:46Z</time></trkpt>
<trkpt lat="47.37407684" lon="7.05107689"><ele>802.838135</ele><time>2006-05-03T17:06:03Z</time></trkpt>
<trkpt lat="47.37424850" lon="7.04998255"><ele>804.760742</ele><time>2006-05-03T17:06:21Z</time></trkpt>
<trkpt lat="47.37431288" lon="7.04895258"><ele>807.644775</ele><time>2006-05-03T17:06:39Z</time></trkpt>
<trkpt lat="47.37424850" lon="7.04712868"><ele>813.893311</ele><time>2006-05-03T17:07:23Z</time></trkpt>
<trkpt lat="47.37418413" lon="7.04642057"><ele>814.374023</ele><time>2006-05-03T17:07:42Z</time></trkpt>
<trkpt lat="47.37409830" lon="7.04566956"><ele>815.335449</ele><time>2006-05-03T17:08:02Z</time></trkpt>
<trkpt lat="47.37390518" lon="7.04491854"><ele>820.622559</ele><time>2006-05-03T17:08:23Z</time></trkpt>
<trkpt lat="47.37396955" lon="7.04442501"><ele>821.103271</ele><time>2006-05-03T17:08:39Z</time></trkpt>
<trkpt lat="47.37418413" lon="7.04384565"><ele>823.506592</ele><time>2006-05-03T17:08:57Z</time></trkpt>
<trkpt lat="47.37424850" lon="7.04335213"><ele>824.467773</ele><time>2006-05-03T17:09:12Z</time></trkpt>
<trkpt lat="47.37418413" lon="7.04251528"><ele>825.428955</ele><time>2006-05-03T17:09:35Z</time></trkpt>
<trkpt lat="47.37407684" lon="7.04197884"><ele>826.390381</ele><time>2006-05-03T17:09:49Z</time></trkpt>
<trkpt lat="47.37405539" lon="7.04049826"><ele>834.081055</ele><time>2006-05-03T17:10:30Z</time></trkpt>
<trkpt lat="47.37396955" lon="7.03963995"><ele>836.003662</ele><time>2006-05-03T17:10:58Z</time></trkpt>
<trkpt lat="47.37396955" lon="7.03809500"><ele>845.616943</ele><time>2006-05-03T17:11:37Z</time></trkpt>
<trkpt lat="47.37392664" lon="7.03740835"><ele>849.942871</ele><time>2006-05-03T17:11:55Z</time></trkpt>
<trkpt lat="47.37379789" lon="7.03704357"><ele>850.904053</ele><time>2006-05-03T17:12:10Z</time></trkpt>
<trkpt lat="47.37375498" lon="7.03706503"><ele>851.384766</ele><time>2006-05-03T17:12:22Z</time></trkpt>
<trkpt lat="47.37377644" lon="7.03777313"><ele>851.865479</ele><time>2006-05-03T17:12:52Z</time></trkpt>
<trkpt lat="47.37364769" lon="7.03876019"><ele>854.268799</ele><time>2006-05-03T17:13:27Z</time></trkpt>
<trkpt lat="47.37347603" lon="7.03923225"><ele>859.555908</ele><time>2006-05-03T17:13:45Z</time></trkpt>
<trkpt lat="47.37334728" lon="7.04019785"><ele>863.881836</ele><time>2006-05-03T17:14:25Z</time></trkpt>
<trkpt lat="47.37326145" lon="7.04058409"><ele>867.246582</ele><time>2006-05-03T17:14:47Z</time></trkpt>
<trkpt lat="47.37300396" lon="7.04120636"><ele>868.688477</ele><time>2006-05-03T17:15:21Z</time></trkpt>
<trkpt lat="47.37229586" lon="7.04337358"><ele>868.688477</ele><time>2006-05-03T17:15:43Z</time></trkpt>
<trkpt lat="47.37212420" lon="7.04515457"><ele>868.688477</ele><time>2006-05-03T17:16:02Z</time></trkpt>
<trkpt lat="47.37184525" lon="7.04918861"><ele>868.688477</ele><time>2006-05-03T17:16:45Z</time></trkpt>
<trkpt lat="47.37145901" lon="7.05060482"><ele>869.169189</ele><time>2006-05-03T17:17:00Z</time></trkpt>
<trkpt lat="47.37107277" lon="7.05189228"><ele>869.649902</ele><time>2006-05-03T17:17:17Z</time></trkpt>
<trkpt lat="47.36997843" lon="7.05107689"><ele>870.611084</ele><time>2006-05-03T17:17:20Z</time></trkpt>
<trkpt lat="47.37019300" lon="7.05094814"><ele>869.169189</ele><time>2006-05-03T17:17:29Z</time></trkpt>
<trkpt lat="47.37019300" lon="7.05105543"><ele>871.091797</ele><time>2006-05-03T17:18:11Z</time></trkpt>
<trkpt lat="47.37002134" lon="7.05148458"><ele>873.014404</ele><time>2006-05-03T17:20:05Z</time></trkpt>
<trkpt lat="47.37004280" lon="7.05154896"><ele>872.533691</ele><time>2006-05-03T17:20:09Z</time></trkpt>
<trkpt lat="47.36999989" lon="7.05187082"><ele>868.688477</ele><time>2006-05-03T17:20:26Z</time></trkpt>
<trkpt lat="47.37002134" lon="7.05187082"><ele>866.285156</ele><time>2006-05-03T17:20:44Z</time></trkpt>
<trkpt lat="47.36972094" lon="7.05326557"><ele>870.611084</ele><time>2006-05-03T17:22:09Z</time></trkpt>
<trkpt lat="47.36974239" lon="7.05365181"><ele>875.898193</ele><time>2006-05-03T17:22:24Z</time></trkpt>
<trkpt lat="47.36980677" lon="7.05405951"><ele>878.782471</ele><time>2006-05-03T17:22:41Z</time></trkpt>
<trkpt lat="47.36999989" lon="7.05453157"><ele>884.06958</ele><time>2006-05-03T17:22:57Z</time></trkpt>
<trkpt lat="47.37030029" lon="7.05506802"><ele>889.356689</ele><time>2006-05-03T17:23:13Z</time></trkpt>
<trkpt lat="47.37077236" lon="7.05577612"><ele>891.279297</ele><time>2006-05-03T17:23:33Z</time></trkpt>
<trkpt lat="47.37111568" lon="7.05659151"><ele>888.876221</ele><time>2006-05-03T17:23:44Z</time></trkpt>
<trkpt lat="47.37195253" lon="7.05950975"><ele>878.782471</ele><time>2006-05-03T17:24:15Z</time></trkpt>
<trkpt lat="47.37253189" lon="7.06131220"><ele>873.014404</ele><time>2006-05-03T17:24:36Z</time></trkpt>
<trkpt lat="47.37287521" lon="7.06270695"><ele>868.688477</ele><time>2006-05-03T17:24:52Z</time></trkpt>
<trkpt lat="47.37347603" lon="7.06676245"><ele>864.843262</ele><time>2006-05-03T17:25:39Z</time></trkpt>
<trkpt lat="47.37384081" lon="7.06884384"><ele>862.439941</ele><time>2006-05-03T17:26:04Z</time></trkpt>
<trkpt lat="47.37420559" lon="7.07120419"><ele>860.036621</ele><time>2006-05-03T17:26:32Z</time></trkpt>
<trkpt lat="47.37495661" lon="7.07247019"><ele>853.788086</ele><time>2006-05-03T17:26:49Z</time></trkpt>
<trkpt lat="47.37495661" lon="7.07257748"><ele>849.942871</ele><time>2006-05-03T17:26:57Z</time></trkpt>
<trkpt lat="47.37437725" lon="7.07214832"><ele>787.937744</ele><time>2006-05-03T17:29:00Z</time></trkpt>
<trkpt lat="47.37433434" lon="7.07216978"><ele>786.49585</ele><time>2006-05-03T17:29:39Z</time></trkpt>
<trkpt lat="47.37347603" lon="7.07360744"><ele>787.937744</ele><time>2006-05-03T17:30:37Z</time></trkpt>
<trkpt lat="47.37240314" lon="7.07624674"><ele>787.937744</ele><time>2006-05-03T17:30:41Z</time></trkpt>
<trkpt lat="47.37334728" lon="7.07648277"><ele>787.937744</ele><time>2006-05-03T17:30:45Z</time></trkpt>
<trkpt lat="47.37323999" lon="7.07665443"><ele>787.937744</ele><time>2006-05-03T17:30:47Z</time></trkpt>
<trkpt lat="47.37281084" lon="7.07770586"><ele>802.357422</ele><time>2006-05-03T17:31:09Z</time></trkpt>
<trkpt lat="47.37253189" lon="7.07852125"><ele>803.318848</ele><time>2006-05-03T17:31:32Z</time></trkpt>
<trkpt lat="47.37244606" lon="7.07948685"><ele>805.241455</ele><time>2006-05-03T17:32:00Z</time></trkpt>
<trkpt lat="47.37272501" lon="7.08191156"><ele>806.68335</ele><time>2006-05-03T17:32:42Z</time></trkpt>
<trkpt lat="47.37317562" lon="7.08268404"><ele>811.009277</ele><time>2006-05-03T17:32:53Z</time></trkpt>
<trkpt lat="47.37343311" lon="7.08322048"><ele>813.893311</ele><time>2006-05-03T17:33:05Z</time></trkpt>
<trkpt lat="47.37349749" lon="7.08341360"><ele>815.816162</ele><time>2006-05-03T17:33:09Z</time></trkpt>
<trkpt lat="47.37347603" lon="7.08360672"><ele>819.180664</ele><time>2006-05-03T17:33:13Z</time></trkpt>
<trkpt lat="47.37358332" lon="7.08448648"><ele>821.58374</ele><time>2006-05-03T17:33:30Z</time></trkpt>
<trkpt lat="47.37375498" lon="7.08538771"><ele>822.545166</ele><time>2006-05-03T17:33:52Z</time></trkpt>
<trkpt lat="47.37416267" lon="7.08609581"><ele>823.987061</ele><time>2006-05-03T17:34:07Z</time></trkpt>
<trkpt lat="47.37452745" lon="7.08684683"><ele>824.948486</ele><time>2006-05-03T17:34:19Z</time></trkpt>
<trkpt lat="47.37493515" lon="7.08819866"><ele>823.506592</ele><time>2006-05-03T17:34:36Z</time></trkpt>
<trkpt lat="47.37487078" lon="7.08824158"><ele>816.777344</ele><time>2006-05-03T17:34:49Z</time></trkpt>
<trkpt lat="47.37489223" lon="7.08860636"><ele>811.970703</ele><time>2006-05-03T17:35:47Z</time></trkpt>
<trkpt lat="47.37523556" lon="7.09070921"><ele>809.08667</ele><time>2006-05-03T17:36:23Z</time></trkpt>
<trkpt lat="47.37536430" lon="7.09111691"><ele>809.08667</ele><time>2006-05-03T17:36:29Z</time></trkpt>
<trkpt lat="47.37536430" lon="7.09124565"><ele>809.08667</ele><time>2006-05-03T17:36:31Z</time></trkpt>
<trkpt lat="47.37514973" lon="7.09111691"><ele>809.08667</ele><time>2006-05-03T17:36:36Z</time></trkpt>
<trkpt lat="47.37495661" lon="7.09083796"><ele>808.125488</ele><time>2006-05-03T17:36:42Z</time></trkpt>
<trkpt lat="47.37472057" lon="7.09040880"><ele>808.125488</ele><time>2006-05-03T17:36:49Z</time></trkpt>
<trkpt lat="47.37446308" lon="7.09062338"><ele>804.760742</ele><time>2006-05-03T17:36:55Z</time></trkpt>
<trkpt lat="47.37431288" lon="7.09094524"><ele>804.760742</ele><time>2006-05-03T17:37:00Z</time></trkpt>
<trkpt lat="47.37405539" lon="7.09167480"><ele>803.799561</ele><time>2006-05-03T17:37:14Z</time></trkpt>
<trkpt lat="47.37416267" lon="7.09208250"><ele>805.722168</ele><time>2006-05-03T17:37:26Z</time></trkpt>
<trkpt lat="47.37442017" lon="7.09242582"><ele>799.954346</ele><time>2006-05-03T17:37:43Z</time></trkpt>
<trkpt lat="47.37463474" lon="7.09283352"><ele>798.99292</ele><time>2006-05-03T17:38:05Z</time></trkpt>
<trkpt lat="47.37491369" lon="7.09354162"><ele>808.125488</ele><time>2006-05-03T17:38:38Z</time></trkpt>
<trkpt lat="47.37497807" lon="7.09401369"><ele>805.241455</ele><time>2006-05-03T17:38:57Z</time></trkpt>
<trkpt lat="47.37504244" lon="7.09504366"><ele>807.164063</ele><time>2006-05-03T17:39:43Z</time></trkpt>
<trkpt lat="47.37517118" lon="7.09549427"><ele>813.412842</ele><time>2006-05-03T17:40:02Z</time></trkpt>
<trkpt lat="47.37540722" lon="7.09600925"><ele>807.644775</ele><time>2006-05-03T17:40:31Z</time></trkpt>
<trkpt lat="47.37542868" lon="7.09637403"><ele>807.644775</ele><time>2006-05-03T17:40:45Z</time></trkpt>
<trkpt lat="47.37534285" lon="7.09695339"><ele>825.909668</ele><time>2006-05-03T17:42:21Z</time></trkpt>
<trkpt lat="47.37521410" lon="7.09748983"><ele>820.622559</ele><time>2006-05-03T17:42:37Z</time></trkpt>
<trkpt lat="47.37493515" lon="7.09813356"><ele>819.180664</ele><time>2006-05-03T17:42:55Z</time></trkpt>
<trkpt lat="47.37444162" lon="7.09879875"><ele>815.816162</ele><time>2006-05-03T17:43:13Z</time></trkpt>
<trkpt lat="47.37411976" lon="7.09918499"><ele>820.622559</ele><time>2006-05-03T17:43:26Z</time></trkpt>
<trkpt lat="47.37396955" lon="7.09950686"><ele>817.738525</ele><time>2006-05-03T17:43:43Z</time></trkpt>
<trkpt lat="47.37371206" lon="7.09972143"><ele>811.48999</ele><time>2006-05-03T17:44:00Z</time></trkpt>
<trkpt lat="47.37354040" lon="7.09969997"><ele>809.08667</ele><time>2006-05-03T17:44:06Z</time></trkpt>
<trkpt lat="47.37351894" lon="7.09965706"><ele>809.567383</ele><time>2006-05-03T17:45:49Z</time></trkpt>
<trkpt lat="47.37336874" lon="7.09982872"><ele>804.280273</ele><time>2006-05-03T17:45:58Z</time></trkpt>
<trkpt lat="47.37323999" lon="7.10019350"><ele>803.799561</ele><time>2006-05-03T17:46:06Z</time></trkpt>
<trkpt lat="47.37330437" lon="7.10096598"><ele>797.551025</ele><time>2006-05-03T17:46:16Z</time></trkpt>
<trkpt lat="47.37332582" lon="7.10103035"><ele>796.589844</ele><time>2006-05-03T17:46:17Z</time></trkpt>
<trkpt lat="47.37356186" lon="7.10126638"><ele>793.224854</ele><time>2006-05-03T17:46:23Z</time></trkpt>
<trkpt lat="47.37394810" lon="7.10128784"><ele>790.821533</ele><time>2006-05-03T17:46:30Z</time></trkpt>
<trkpt lat="47.37450600" lon="7.10081577"><ele>789.860352</ele><time>2006-05-03T17:46:38Z</time></trkpt>
<trkpt lat="47.37491369" lon="7.10062265"><ele>789.860352</ele><time>2006-05-03T17:46:43Z</time></trkpt>
<trkpt lat="47.37521410" lon="7.10066557"><ele>790.341064</ele><time>2006-05-03T17:46:48Z</time></trkpt>
<trkpt lat="47.37570763" lon="7.10092306"><ele>783.131104</ele><time>2006-05-03T17:47:05Z</time></trkpt>
<trkpt lat="47.37590075" lon="7.10113764"><ele>782.650635</ele><time>2006-05-03T17:47:08Z</time></trkpt>
<trkpt lat="47.37632990" lon="7.10148096"><ele>778.324463</ele><time>2006-05-03T17:47:15Z</time></trkpt>
<trkpt lat="47.37716675" lon="7.10233927"><ele>766.788818</ele><time>2006-05-03T17:47:26Z</time></trkpt>
<trkpt lat="47.37727404" lon="7.10257530"><ele>764.385498</ele><time>2006-05-03T17:47:28Z</time></trkpt>
<trkpt lat="47.37793922" lon="7.10356236"><ele>761.982178</ele><time>2006-05-03T17:47:37Z</time></trkpt>
<trkpt lat="47.37888336" lon="7.10450649"><ele>751.888428</ele><time>2006-05-03T17:47:47Z</time></trkpt>
<trkpt lat="47.38053560" lon="7.10598707"><ele>743.717041</ele><time>2006-05-03T17:48:01Z</time></trkpt>
<trkpt lat="47.38210201" lon="7.10718870"><ele>741.313721</ele><time>2006-05-03T17:48:15Z</time></trkpt>
<trkpt lat="47.38225222" lon="7.10727453"><ele>741.313721</ele><time>2006-05-03T17:48:16Z</time></trkpt>
<trkpt lat="47.38306761" lon="7.10862637"><ele>735.06543</ele><time>2006-05-03T17:48:25Z</time></trkpt>
<trkpt lat="47.38482714" lon="7.11107254"><ele>734.104004</ele><time>2006-05-03T17:48:43Z</time></trkpt>
<trkpt lat="47.38542795" lon="7.11182356"><ele>734.104004</ele><time>2006-05-03T17:48:49Z</time></trkpt>
<trkpt lat="47.38572836" lon="7.11197376"><ele>734.104004</ele><time>2006-05-03T17:48:52Z</time></trkpt>
<trkpt lat="47.38697290" lon="7.11130857"><ele>599.519287</ele><time>2006-05-03T17:49:12Z</time></trkpt>
<trkpt lat="47.38851786" lon="7.11057901"><ele>589.425537</ele><time>2006-05-03T17:49:37Z</time></trkpt>
<trkpt lat="47.38950491" lon="7.11004257"><ele>582.696289</ele><time>2006-05-03T17:49:52Z</time></trkpt>
<trkpt lat="47.39109278" lon="7.10965633"><ele>564.911865</ele><time>2006-05-03T17:50:05Z</time></trkpt>
<trkpt lat="47.39306688" lon="7.10967779"><ele>550.011475</ele><time>2006-05-03T17:50:22Z</time></trkpt>
<trkpt lat="47.39450455" lon="7.10916281"><ele>542.320923</ele><time>2006-05-03T17:50:41Z</time></trkpt>
<trkpt lat="47.39534140" lon="7.10952759"><ele>534.149658</ele><time>2006-05-03T17:50:52Z</time></trkpt>
<trkpt lat="47.39673615" lon="7.11128712"><ele>521.171997</ele><time>2006-05-03T17:51:15Z</time></trkpt>
<trkpt lat="47.39778757" lon="7.11231709"><ele>510.59729</ele><time>2006-05-03T17:51:32Z</time></trkpt>
<trkpt lat="47.39847422" lon="7.11302519"><ele>507.232788</ele><time>2006-05-03T17:51:41Z</time></trkpt>
<trkpt lat="47.39924669" lon="7.11390495"><ele>501.945557</ele><time>2006-05-03T17:51:52Z</time></trkpt>
<trkpt lat="47.40010500" lon="7.11465597"><ele>497.619629</ele><time>2006-05-03T17:52:04Z</time></trkpt>
<trkpt lat="47.40089893" lon="7.11542845"><ele>495.216187</ele><time>2006-05-03T17:52:17Z</time></trkpt>
<trkpt lat="47.40154266" lon="7.11581469"><ele>494.735596</ele><time>2006-05-03T17:52:27Z</time></trkpt>
<trkpt lat="47.40210056" lon="7.11594343"><ele>493.293579</ele><time>2006-05-03T17:52:38Z</time></trkpt>
<trkpt lat="47.40212202" lon="7.11579323"><ele>491.370972</ele><time>2006-05-03T17:52:44Z</time></trkpt>
<trkpt lat="47.40195036" lon="7.11521387"><ele>491.851685</ele><time>2006-05-03T17:52:56Z</time></trkpt>
<trkpt lat="47.40210056" lon="7.11448431"><ele>491.370972</ele><time>2006-05-03T17:53:08Z</time></trkpt>
<trkpt lat="47.40225077" lon="7.11422682"><ele>491.370972</ele><time>2006-05-03T17:53:13Z</time></trkpt>
<trkpt lat="47.40250826" lon="7.11403370"><ele>492.332397</ele><time>2006-05-03T17:53:20Z</time></trkpt>
<trkpt lat="47.40278721" lon="7.11396933"><ele>492.812988</ele><time>2006-05-03T17:53:25Z</time></trkpt>
<trkpt lat="47.40293741" lon="7.11364746"><ele>492.812988</ele><time>2006-05-03T17:53:30Z</time></trkpt>
<trkpt lat="47.40368843" lon="7.11087942"><ele>489.448364</ele><time>2006-05-03T17:54:08Z</time></trkpt>
<trkpt lat="47.40407467" lon="7.10927010"><ele>486.564453</ele><time>2006-05-03T17:54:21Z</time></trkpt>
<trkpt lat="47.40437508" lon="7.10821867"><ele>487.525635</ele><time>2006-05-03T17:54:31Z</time></trkpt>
<trkpt lat="47.40471840" lon="7.10678101"><ele>484.641846</ele><time>2006-05-03T17:54:43Z</time></trkpt>
<trkpt lat="47.40501881" lon="7.10566521"><ele>482.719238</ele><time>2006-05-03T17:54:52Z</time></trkpt>
<trkpt lat="47.40542650" lon="7.10517168"><ele>479.354492</ele><time>2006-05-03T17:54:58Z</time></trkpt>
<trkpt lat="47.40568399" lon="7.10446358"><ele>474.547974</ele><time>2006-05-03T17:55:04Z</time></trkpt>
<trkpt lat="47.40557671" lon="7.10390568"><ele>471.18335</ele><time>2006-05-03T17:55:09Z</time></trkpt>
<trkpt lat="47.40514755" lon="7.10313320"><ele>466.857422</ele><time>2006-05-03T17:55:19Z</time></trkpt>
<trkpt lat="47.40508318" lon="7.10274696"><ele>466.857422</ele><time>2006-05-03T17:55:23Z</time></trkpt>
<trkpt lat="47.40489006" lon="7.10229635"><ele>468.299316</ele><time>2006-05-03T17:55:30Z</time></trkpt>
<trkpt lat="47.40486860" lon="7.10186720"><ele>470.221924</ele><time>2006-05-03T17:55:36Z</time></trkpt>
<trkpt lat="47.40514755" lon="7.10090160"><ele>474.547974</ele><time>2006-05-03T17:55:53Z</time></trkpt>
<trkpt lat="47.40521193" lon="7.09982872"><ele>480.796631</ele><time>2006-05-03T17:56:16Z</time></trkpt>
<trkpt lat="47.40529776" lon="7.09948540"><ele>483.199829</ele><time>2006-05-03T17:56:26Z</time></trkpt>
<trkpt lat="47.40540504" lon="7.09952831"><ele>482.238525</ele><time>2006-05-03T17:56:33Z</time></trkpt>
<trkpt lat="47.40525484" lon="7.09931374"><ele>481.757813</ele><time>2006-05-03T17:56:43Z</time></trkpt>
<trkpt lat="47.40523338" lon="7.09637403"><ele>490.40979</ele><time>2006-05-03T17:57:40Z</time></trkpt>
<trkpt lat="47.40529776" lon="7.09558010"><ele>493.293579</ele><time>2006-05-03T17:57:56Z</time></trkpt>
<trkpt lat="47.40527630" lon="7.09480762"><ele>493.774292</ele><time>2006-05-03T17:58:10Z</time></trkpt>
<trkpt lat="47.40536213" lon="7.09375620"><ele>494.735596</ele><time>2006-05-03T17:58:26Z</time></trkpt>
<trkpt lat="47.40555525" lon="7.09266186"><ele>494.735596</ele><time>2006-05-03T17:58:41Z</time></trkpt>
<trkpt lat="47.40566254" lon="7.09143877"><ele>492.332397</ele><time>2006-05-03T17:58:53Z</time></trkpt>
<trkpt lat="47.40566254" lon="7.09015131"><ele>488.00647</ele><time>2006-05-03T17:59:03Z</time></trkpt>
<trkpt lat="47.40521193" lon="7.08684683"><ele>474.547974</ele><time>2006-05-03T17:59:28Z</time></trkpt>
<trkpt lat="47.40510464" lon="7.08568811"><ele>471.18335</ele><time>2006-05-03T17:59:37Z</time></trkpt>
<trkpt lat="47.40512609" lon="7.08422899"><ele>469.260742</ele><time>2006-05-03T17:59:48Z</time></trkpt>
<trkpt lat="47.40499735" lon="7.08375692"><ele>467.338135</ele><time>2006-05-03T17:59:53Z</time></trkpt>
<trkpt lat="47.40497589" lon="7.08352089"><ele>467.338135</ele><time>2006-05-03T17:59:56Z</time></trkpt>
<trkpt lat="47.40510464" lon="7.08345652"><ele>465.415527</ele><time>2006-05-03T18:00:01Z</time></trkpt>
<trkpt lat="47.40527630" lon="7.08315611"><ele>463.012085</ele><time>2006-05-03T18:00:06Z</time></trkpt>
<trkpt lat="47.40540504" lon="7.08204031"><ele>461.089478</ele><time>2006-05-03T18:00:20Z</time></trkpt>
<trkpt lat="47.40527630" lon="7.08169699"><ele>459.647583</ele><time>2006-05-03T18:00:24Z</time></trkpt>
<trkpt lat="47.40491152" lon="7.08101034"><ele>454.360229</ele><time>2006-05-03T18:00:31Z</time></trkpt>
<trkpt lat="47.40476131" lon="7.08055973"><ele>452.437622</ele><time>2006-05-03T18:00:35Z</time></trkpt>
<trkpt lat="47.40484715" lon="7.08015203"><ele>451.476318</ele><time>2006-05-03T18:00:41Z</time></trkpt>
<trkpt lat="47.40495443" lon="7.08002329"><ele>451.476318</ele><time>2006-05-03T18:00:44Z</time></trkpt>
<trkpt lat="47.40506172" lon="7.07974434"><ele>450.034424</ele><time>2006-05-03T18:00:49Z</time></trkpt>
<trkpt lat="47.40516901" lon="7.07918644"><ele>449.072998</ele><time>2006-05-03T18:00:59Z</time></trkpt>
<trkpt lat="47.40499735" lon="7.07918644"><ele>448.111816</ele><time>2006-05-03T18:01:06Z</time></trkpt>
<trkpt lat="47.40458965" lon="7.07955122"><ele>444.74707</ele><time>2006-05-03T18:01:15Z</time></trkpt>
<trkpt lat="47.40386009" lon="7.07980871"><ele>442.343872</ele><time>2006-05-03T18:01:29Z</time></trkpt>
<trkpt lat="47.40379572" lon="7.07974434"><ele>441.863159</ele><time>2006-05-03T18:01:37Z</time></trkpt>
<trkpt lat="47.40370989" lon="7.07946539"><ele>442.824463</ele><time>2006-05-03T18:01:47Z</time></trkpt>
<trkpt lat="47.40355968" lon="7.07940102"><ele>441.863159</ele><time>2006-05-03T18:01:51Z</time></trkpt>
<trkpt lat="47.40304470" lon="7.07931519"><ele>444.74707</ele><time>2006-05-03T18:02:03Z</time></trkpt>
<trkpt lat="47.40257263" lon="7.07914352"><ele>445.708374</ele><time>2006-05-03T18:02:15Z</time></trkpt>
<trkpt lat="47.40184307" lon="7.07856417"><ele>447.150269</ele><time>2006-05-03T18:02:32Z</time></trkpt>
<trkpt lat="47.40102768" lon="7.07746983"><ele>453.398926</ele><time>2006-05-03T18:03:03Z</time></trkpt>
<trkpt lat="47.40085602" lon="7.07693338"><ele>452.437622</ele><time>2006-05-03T18:03:17Z</time></trkpt>
<trkpt lat="47.40072727" lon="7.07620382"><ele>454.84082</ele><time>2006-05-03T18:03:37Z</time></trkpt>
<trkpt lat="47.40059853" lon="7.07573175"><ele>455.802246</ele><time>2006-05-03T18:03:52Z</time></trkpt>
<trkpt lat="47.40049124" lon="7.07519531"><ele>457.244263</ele><time>2006-05-03T18:04:08Z</time></trkpt>
<trkpt lat="47.40051270" lon="7.07465887"><ele>464.454102</ele><time>2006-05-03T18:04:24Z</time></trkpt>
<trkpt lat="47.40061998" lon="7.07427263"><ele>467.818726</ele><time>2006-05-03T18:04:36Z</time></trkpt>
<trkpt lat="47.40089893" lon="7.07382202"><ele>471.66394</ele><time>2006-05-03T18:04:54Z</time></trkpt>
<trkpt lat="47.40102768" lon="7.07341433"><ele>474.067261</ele><time>2006-05-03T18:05:09Z</time></trkpt>
<trkpt lat="47.40109205" lon="7.07279205"><ele>476.470581</ele><time>2006-05-03T18:05:24Z</time></trkpt>
<trkpt lat="47.40111351" lon="7.07116127"><ele>475.509277</ele><time>2006-05-03T18:05:49Z</time></trkpt>
<trkpt lat="47.40124226" lon="7.07023859"><ele>477.431885</ele><time>2006-05-03T18:06:02Z</time></trkpt>
<trkpt lat="47.40141392" lon="7.06927299"><ele>480.796631</ele><time>2006-05-03T18:06:19Z</time></trkpt>
<trkpt lat="47.40137100" lon="7.06871510"><ele>481.757813</ele><time>2006-05-03T18:06:30Z</time></trkpt>
<trkpt lat="47.40122080" lon="7.06783533"><ele>481.757813</ele><time>2006-05-03T18:06:48Z</time></trkpt>
<trkpt lat="47.40119934" lon="7.06725597"><ele>486.564453</ele><time>2006-05-03T18:07:02Z</time></trkpt>
<trkpt lat="47.40220785" lon="7.06639767"><ele>486.08374</ele><time>2006-05-03T18:07:26Z</time></trkpt>
<trkpt lat="47.40276575" lon="7.06674099"><ele>484.161133</ele><time>2006-05-03T18:07:36Z</time></trkpt>
<trkpt lat="47.40452528" lon="7.06729889"><ele>482.238525</ele><time>2006-05-03T18:08:02Z</time></trkpt>
<trkpt lat="47.40542650" lon="7.06729889"><ele>484.641846</ele><time>2006-05-03T18:08:22Z</time></trkpt>
<trkpt lat="47.40604877" lon="7.06740618"><ele>485.122437</ele><time>2006-05-03T18:08:36Z</time></trkpt>
<trkpt lat="47.40684271" lon="7.06781387"><ele>484.161133</ele><time>2006-05-03T18:08:52Z</time></trkpt>
<trkpt lat="47.40695000" lon="7.06787825"><ele>484.161133</ele><time>2006-05-03T18:08:54Z</time></trkpt>
<trkpt lat="47.40716457" lon="7.06820011"><ele>484.161133</ele><time>2006-05-03T18:08:58Z</time></trkpt>
<trkpt lat="47.40800142" lon="7.06980944"><ele>482.238525</ele><time>2006-05-03T18:09:06Z</time></trkpt>
<trkpt lat="47.40877390" lon="7.07066774"><ele>475.989868</ele><time>2006-05-03T18:09:18Z</time></trkpt>
<trkpt lat="47.40896702" lon="7.07079649"><ele>474.067261</ele><time>2006-05-03T18:09:21Z</time></trkpt>
<trkpt lat="47.40911722" lon="7.07107544"><ele>472.144653</ele><time>2006-05-03T18:09:25Z</time></trkpt>
<trkpt lat="47.40967512" lon="7.07171917"><ele>468.299316</ele><time>2006-05-03T18:09:35Z</time></trkpt>
<trkpt lat="47.40995407" lon="7.07195520"><ele>467.338135</ele><time>2006-05-03T18:09:39Z</time></trkpt>
<trkpt lat="47.41053343" lon="7.07322121"><ele>459.16687</ele><time>2006-05-03T18:09:57Z</time></trkpt>
<trkpt lat="47.41089821" lon="7.07352161"><ele>454.84082</ele><time>2006-05-03T18:10:02Z</time></trkpt>
<trkpt lat="47.41164923" lon="7.07375765"><ele>452.437622</ele><time>2006-05-03T18:10:14Z</time></trkpt>
<trkpt lat="47.41250753" lon="7.07416534"><ele>453.398926</ele><time>2006-05-03T18:10:27Z</time></trkpt>
<trkpt lat="47.41272211" lon="7.07416534"><ele>453.879639</ele><time>2006-05-03T18:10:30Z</time></trkpt>
<trkpt lat="47.41409540" lon="7.07386494"><ele>451.957031</ele><time>2006-05-03T18:10:50Z</time></trkpt>
<trkpt lat="47.41426706" lon="7.07405806"><ele>450.995605</ele><time>2006-05-03T18:10:55Z</time></trkpt>
<trkpt lat="47.41456747" lon="7.07478762"><ele>450.515015</ele><time>2006-05-03T18:11:17Z</time></trkpt>
</trkseg></trk></gpx>